createdAt,value
2018-12-25T00:01:14.325Z,103315.02
2018-12-25T00:04:40.453Z,103319.48
2018-12-25T00:08:06.510Z,103321.77
2018-12-25T00:11:34.950Z,103322.96
2018-12-25T00:15:00.678Z,103331.52
2018-12-25T00:18:26.896Z,103327.07
2018-12-25T00:21:53.211Z,103325.30
2018-12-25T00:25:21.367Z,103319.44
2018-12-25T00:28:47.720Z,103310.12
2018-12-25T00:32:18.398Z,103307.78
2018-12-25T00:35:44.374Z,103305.73
2018-12-25T00:39:10.365Z,103306.60
2018-12-25T00:42:36.601Z,103300.64
2018-12-25T00:46:02.945Z,103296.30
2018-12-25T00:49:30.323Z,103303.84
2018-12-25T00:52:56.838Z,103307.30
2018-12-25T00:56:22.892Z,103306.31
2018-12-25T00:59:48.755Z,103311.02
2018-12-25T01:03:17.045Z,103309.60
2018-12-25T01:06:42.672Z,103309.22
2018-12-25T01:10:08.522Z,103316.31
2018-12-25T01:13:34.454Z,103318.15
2018-12-25T01:17:01.278Z,103326.44
2018-12-25T01:20:27.206Z,103324.36
2018-12-25T01:23:53.206Z,103325.15
2018-12-25T01:27:22.208Z,103327.45
2018-12-25T01:30:48.409Z,103322.03
2018-12-25T01:34:14.579Z,103331.03
2018-12-25T01:37:40.702Z,103334.98
2018-12-25T01:41:06.509Z,103345.77
2018-12-25T01:44:35.166Z,103339.01
2018-12-25T01:48:00.805Z,103348.73
2018-12-25T01:51:26.390Z,103342.44
2018-12-25T01:54:51.912Z,103341.28
2018-12-25T01:58:17.491Z,103343.54
2018-12-25T02:01:43.408Z,103343.05
2018-12-25T02:05:08.988Z,103347.98
2018-12-25T02:08:34.661Z,103352.50
2018-12-25T02:12:00.300Z,103352.89
2018-12-25T02:15:25.899Z,103346.59
2018-12-25T02:18:51.459Z,103345.61
2018-12-25T02:22:17.011Z,103356.91
2018-12-25T02:25:42.864Z,103362.19
2018-12-25T02:29:08.465Z,103350.23
2018-12-25T02:32:34.332Z,103348.45
2018-12-25T02:35:59.963Z,103347.46
2018-12-25T02:39:25.562Z,103359.03
2018-12-25T02:42:51.403Z,103358.14
2018-12-25T02:46:16.954Z,103355.52
2018-12-25T02:49:50.203Z,103369.33
2018-12-25T02:53:09.835Z,103364.95
2018-12-25T02:56:35.441Z,103366.20
2018-12-25T03:00:01.299Z,103367.13
2018-12-25T03:03:27.116Z,103355.97
2018-12-25T03:06:52.726Z,103355.19
2018-12-25T03:10:18.305Z,103347.93
2018-12-25T03:13:44.183Z,103350.53
2018-12-25T03:17:09.740Z,103345.56
2018-12-25T03:20:35.395Z,103341.34
2018-12-25T03:24:01.050Z,103338.36
2018-12-25T03:27:26.925Z,103341.69
2018-12-25T03:30:52.472Z,103335.76
2018-12-25T03:34:18.113Z,103335.34
2018-12-25T03:37:43.911Z,103333.08
2018-12-25T03:41:10.037Z,103325.03
2018-12-25T03:44:35.613Z,103324.70
2018-12-25T03:48:01.149Z,103319.80
2018-12-25T03:51:26.715Z,103312.31
2018-12-25T03:54:52.322Z,103310.52
2018-12-25T03:58:17.905Z,103310.05
2018-12-25T04:01:43.494Z,103311.42
2018-12-25T04:05:09.068Z,103306.47
2018-12-25T04:08:34.630Z,103301.15
2018-12-25T04:12:00.180Z,103305.78
2018-12-25T04:15:25.733Z,103303.59
2018-12-25T04:18:51.343Z,103305.08
2018-12-25T04:22:16.914Z,103310.25
2018-12-25T04:25:42.514Z,103303.91
2018-12-25T04:29:08.298Z,103301.05
2018-12-25T04:32:33.930Z,103295.48
2018-12-25T04:35:59.573Z,103299.49
2018-12-25T04:39:25.278Z,103297.74
2018-12-25T04:42:50.798Z,103307.97
2018-12-25T04:46:16.368Z,103304.40
2018-12-25T04:49:42.286Z,103306.61
2018-12-25T04:53:07.861Z,103312.36
2018-12-25T04:56:33.448Z,103306.33
2018-12-25T04:59:59.013Z,103303.65
2018-12-25T05:03:24.625Z,103305.62
2018-12-25T05:06:50.222Z,103305.74
2018-12-25T05:10:15.783Z,103306.77
2018-12-25T05:13:41.608Z,103302.59
2018-12-25T05:17:07.256Z,103310.65
2018-12-25T05:20:37.856Z,103311.06
2018-12-25T05:24:00.455Z,103307.59
2018-12-25T05:27:26.019Z,103312.91
2018-12-25T05:30:51.610Z,103308.85
2018-12-25T05:34:17.174Z,103308.55
2018-12-25T05:37:42.718Z,103312.45
2018-12-25T05:41:08.278Z,103311.98
2018-12-25T05:44:33.948Z,103303.52
2018-12-25T05:48:01.622Z,103305.90
2018-12-25T05:51:27.189Z,103308.91
2018-12-25T05:54:52.743Z,103310.61
2018-12-25T05:58:18.303Z,103308.53
2018-12-25T06:01:43.858Z,103314.45
2018-12-25T06:05:09.423Z,103319.33
2018-12-25T06:08:34.965Z,103311.14
2018-12-25T06:12:00.507Z,103315.57
2018-12-25T06:15:26.084Z,103323.59
2018-12-25T06:18:51.601Z,103315.47
2018-12-25T06:22:17.235Z,103318.21
2018-12-25T06:25:42.811Z,103309.27
2018-12-25T06:29:08.382Z,103317.05
2018-12-25T06:32:34.257Z,103314.34
2018-12-25T06:35:59.830Z,103314.89
2018-12-25T06:39:25.393Z,103309.56
2018-12-25T06:42:50.989Z,103311.30
2018-12-25T06:46:16.831Z,103309.46
2018-12-25T06:49:42.447Z,103311.16
2018-12-25T06:53:08.056Z,103316.89
2018-12-25T06:56:33.654Z,103307.45
2018-12-25T06:59:59.223Z,103308.89
2018-12-25T07:03:24.753Z,103313.50
2018-12-25T07:06:50.589Z,103311.63
2018-12-25T07:10:16.365Z,103313.50
2018-12-25T07:13:41.969Z,103308.05
2018-12-25T07:17:07.675Z,103309.39
2018-12-25T07:20:33.315Z,103309.62
2018-12-25T07:23:58.902Z,103309.06
2018-12-25T07:27:24.812Z,103308.57
2018-12-25T07:30:50.573Z,103302.00
2018-12-25T07:34:16.514Z,103306.15
2018-12-25T07:37:42.053Z,103312.62
2018-12-25T07:41:07.818Z,103302.99
2018-12-25T07:44:33.486Z,103314.85
2018-12-25T07:47:59.166Z,103308.14
2018-12-25T07:51:24.878Z,103309.01
2018-12-25T07:54:50.545Z,103319.36
2018-12-25T07:58:16.235Z,103319.52
2018-12-25T08:01:42.117Z,103320.50
2018-12-25T08:05:08.011Z,103313.28
2018-12-25T08:08:33.650Z,103312.53
2018-12-25T08:11:59.262Z,103316.91
2018-12-25T08:15:24.824Z,103327.66
2018-12-25T08:18:50.415Z,103319.04
2018-12-25T08:22:15.973Z,103314.00
2018-12-25T08:25:44.348Z,103321.46
2018-12-25T08:29:09.882Z,103334.41
2018-12-25T08:32:35.438Z,103333.60
2018-12-25T08:36:01.110Z,103340.39
2018-12-25T08:39:26.861Z,103339.78
2018-12-25T08:42:52.556Z,103344.61
2018-12-25T08:46:18.196Z,103345.52
2018-12-25T08:49:43.786Z,103339.13
2018-12-25T08:53:09.342Z,103339.07
2018-12-25T08:56:35.087Z,103333.42
2018-12-25T09:00:01.079Z,103329.78
2018-12-25T09:03:26.863Z,103330.54
2018-12-25T09:06:52.444Z,103329.39
2018-12-25T09:10:18.059Z,103333.11
2018-12-25T09:13:43.636Z,103336.38
2018-12-25T09:17:09.308Z,103333.81
2018-12-25T09:20:35.179Z,103337.73
2018-12-25T09:24:00.849Z,103343.27
2018-12-25T09:27:26.456Z,103346.09
2018-12-25T09:30:52.089Z,103342.44
2018-12-25T09:34:17.679Z,103352.19
2018-12-25T09:37:43.242Z,103355.59
2018-12-25T09:41:08.786Z,103352.39
2018-12-25T09:44:34.357Z,103357.30
2018-12-25T09:47:59.946Z,103347.09
2018-12-25T09:51:25.527Z,103348.08
2018-12-25T09:54:51.520Z,103347.55
2018-12-25T09:58:17.211Z,103346.52
2018-12-25T10:01:43.147Z,103334.78
2018-12-25T10:05:08.670Z,103342.48
2018-12-25T10:08:34.240Z,103343.42
2018-12-25T10:11:59.811Z,103340.02
2018-12-25T10:15:25.406Z,103333.09
2018-12-25T10:18:50.924Z,103337.37
2018-12-25T10:22:16.499Z,103323.73
2018-12-25T10:25:42.493Z,103312.98
2018-12-25T10:29:08.322Z,103319.22
2018-12-25T10:32:33.891Z,103312.08
2018-12-25T10:35:59.491Z,103315.09
2018-12-25T10:39:25.065Z,103314.93
2018-12-25T10:42:50.564Z,103317.84
2018-12-25T10:46:16.053Z,103320.86
2018-12-25T10:49:41.613Z,103320.01
2018-12-25T10:53:07.432Z,103319.97
2018-12-25T10:56:32.980Z,103318.36
2018-12-25T10:59:59.063Z,103312.17
2018-12-25T11:03:24.694Z,103306.27
2018-12-25T11:06:50.258Z,103307.69
2018-12-25T11:10:15.873Z,103306.94
2018-12-25T11:13:41.733Z,103306.01
2018-12-25T11:17:07.271Z,103300.48
2018-12-25T11:20:34.637Z,103297.91
2018-12-25T11:24:00.159Z,103300.23
2018-12-25T11:27:25.763Z,103307.97
2018-12-25T11:30:51.293Z,103300.72
2018-12-25T11:34:17.207Z,103301.04
2018-12-25T11:37:42.748Z,103297.05
2018-12-25T11:41:08.402Z,103310.66
2018-12-25T11:44:33.961Z,103303.91
2018-12-25T11:47:59.592Z,103301.55
2018-12-25T11:51:25.434Z,103301.99
2018-12-25T11:54:51.137Z,103304.50
2018-12-25T11:58:16.774Z,103298.78
2018-12-25T12:01:42.431Z,103294.63
2018-12-25T12:05:08.000Z,103301.91
2018-12-25T12:08:33.953Z,103297.99
2018-12-25T12:11:59.563Z,103293.61
2018-12-25T12:15:25.116Z,103297.64
2018-12-25T12:18:50.687Z,103301.61
2018-12-25T12:22:16.481Z,103292.55
2018-12-25T12:25:42.040Z,103298.03
2018-12-25T12:29:07.607Z,103296.43
2018-12-25T12:32:33.443Z,103294.10
2018-12-25T12:35:59.374Z,103288.42
2018-12-25T12:39:25.241Z,103294.30
2018-12-25T12:42:50.834Z,103287.39
2018-12-25T12:46:16.463Z,103277.31
2018-12-25T12:49:42.062Z,103273.16
2018-12-25T12:53:07.647Z,103275.48
2018-12-25T12:56:33.201Z,103275.36
2018-12-25T12:59:58.879Z,103269.03
2018-12-25T13:03:24.992Z,103270.84
2018-12-25T13:06:50.621Z,103271.27
2018-12-25T13:10:16.470Z,103262.20
2018-12-25T13:13:41.984Z,103259.66
2018-12-25T13:17:07.547Z,103264.10
2018-12-25T13:20:33.461Z,103276.38
2018-12-25T13:23:59.097Z,103283.38
2018-12-25T13:27:24.812Z,103278.86
2018-12-25T13:30:50.411Z,103278.55
2018-12-25T13:34:15.985Z,103280.20
2018-12-25T13:37:41.550Z,103281.83
2018-12-25T13:41:07.117Z,103284.25
2018-12-25T13:44:32.657Z,103280.16
2018-12-25T13:47:58.213Z,103283.39
2018-12-25T13:51:23.790Z,103276.95
2018-12-25T13:54:49.604Z,103280.41
2018-12-25T13:58:15.166Z,103282.07
2018-12-25T14:01:41.021Z,103288.30
2018-12-25T14:05:06.660Z,103277.27
2018-12-25T14:08:32.201Z,103282.02
2018-12-25T14:11:57.783Z,103273.50
2018-12-25T14:15:24.674Z,103273.71
2018-12-25T14:18:50.407Z,103272.01
2018-12-25T14:22:15.974Z,103275.01
2018-12-25T14:25:41.529Z,103283.89
2018-12-25T14:29:07.123Z,103280.73
2018-12-25T14:32:32.675Z,103285.64
2018-12-25T14:35:58.312Z,103282.48
2018-12-25T14:39:23.945Z,103286.39
2018-12-25T14:42:49.811Z,103290.00
2018-12-25T14:46:15.442Z,103281.23
2018-12-25T14:49:41.019Z,103287.85
2018-12-25T14:53:06.541Z,103291.44
2018-12-25T14:56:32.123Z,103290.63
2018-12-25T14:59:58.334Z,103278.58
2018-12-25T15:03:23.982Z,103285.27
2018-12-25T15:06:49.553Z,103290.80
2018-12-25T15:10:15.097Z,103281.38
2018-12-25T15:13:40.643Z,103278.81
2018-12-25T15:17:06.168Z,103284.27
2018-12-25T15:20:32.065Z,103288.16
2018-12-25T15:23:57.907Z,103284.55
2018-12-25T15:27:23.454Z,103282.32
2018-12-25T15:30:48.978Z,103284.30
2018-12-25T15:34:14.546Z,103284.42
2018-12-25T15:37:40.123Z,103293.95
2018-12-25T15:41:05.692Z,103289.99
2018-12-25T15:44:31.285Z,103291.34
2018-12-25T15:47:56.943Z,103286.95
2018-12-25T15:51:22.496Z,103292.10
2018-12-25T15:54:48.073Z,103295.59
2018-12-25T15:58:17.627Z,103296.00
2018-12-25T16:01:43.258Z,103297.53
2018-12-25T16:05:08.921Z,103294.13
2018-12-25T16:08:34.582Z,103303.66
2018-12-25T16:12:00.221Z,103302.73
2018-12-25T16:15:25.755Z,103304.59
2018-12-25T16:18:51.573Z,103307.80
2018-12-25T16:22:17.210Z,103305.48
2018-12-25T16:25:42.793Z,103304.30
2018-12-25T16:29:08.371Z,103295.32
2018-12-25T16:32:33.962Z,103303.63
2018-12-25T16:35:59.514Z,103300.74
2018-12-25T16:39:25.426Z,103300.44
2018-12-25T16:42:51.935Z,103291.98
2018-12-25T16:46:17.464Z,103300.58
2018-12-25T16:49:43.160Z,103309.03
2018-12-25T16:53:08.753Z,103298.66
2018-12-25T16:56:34.582Z,103307.23
2018-12-25T17:00:00.397Z,103309.14
2018-12-25T17:03:26.234Z,103305.19
2018-12-25T17:06:52.364Z,103309.23
2018-12-25T17:10:18.313Z,103307.52
2018-12-25T17:13:43.920Z,103310.68
2018-12-25T17:17:09.518Z,103310.73
2018-12-25T17:20:35.106Z,103314.22
2018-12-25T17:24:02.309Z,103316.19
2018-12-25T17:27:28.052Z,103315.30
2018-12-25T17:30:53.667Z,103313.50
2018-12-25T17:34:19.302Z,103312.28
2018-12-25T17:37:44.956Z,103319.16
2018-12-25T17:41:10.543Z,103308.27
2018-12-25T17:44:36.106Z,103308.32
2018-12-25T17:48:01.702Z,103306.13
2018-12-25T17:51:27.200Z,103309.45
2018-12-25T17:54:52.789Z,103314.95
2018-12-25T17:58:18.439Z,103314.89
2018-12-25T18:01:44.567Z,103308.75
2018-12-25T18:05:12.106Z,103318.42
2018-12-25T18:08:37.406Z,103315.31
2018-12-25T18:12:02.957Z,103323.59
2018-12-25T18:15:28.499Z,103322.42
2018-12-25T18:18:54.046Z,103324.10
2018-12-25T18:22:19.874Z,103324.13
2018-12-25T18:25:45.409Z,103320.52
2018-12-25T18:29:10.977Z,103314.12
2018-12-25T18:32:36.582Z,103316.61
2018-12-25T18:36:02.470Z,103317.60
2018-12-25T18:39:28.057Z,103315.61
2018-12-25T18:42:53.854Z,103317.52
2018-12-25T18:46:19.458Z,103317.19
2018-12-25T18:49:45.016Z,103314.37
2018-12-25T18:53:10.576Z,103318.84
2018-12-25T18:56:36.092Z,103309.98
2018-12-25T19:00:01.701Z,103308.52
2018-12-25T19:03:27.278Z,103306.57
2018-12-25T19:06:52.868Z,103301.25
2018-12-25T19:10:18.465Z,103295.84
2018-12-25T19:13:44.115Z,103288.28
2018-12-25T19:17:09.670Z,103284.59
2018-12-25T19:20:35.459Z,103280.57
2018-12-25T19:24:02.533Z,103282.92
2018-12-25T19:27:28.117Z,103289.59
2018-12-25T19:30:53.675Z,103285.64
2018-12-25T19:34:19.350Z,103285.13
2018-12-25T19:37:44.931Z,103282.86
2018-12-25T19:41:10.535Z,103277.50
2018-12-25T19:44:36.040Z,103278.09
2018-12-25T19:48:01.577Z,103278.51
2018-12-25T19:51:27.402Z,103281.16
2018-12-25T19:54:53.256Z,103282.08
2018-12-25T19:58:18.835Z,103276.34
2018-12-25T20:01:44.421Z,103274.13
2018-12-25T20:05:42.176Z,103275.92
2018-12-25T20:09:58.896Z,103278.13
2018-12-25T20:14:26.789Z,103289.27
2018-12-25T20:18:50.165Z,103293.30
2018-12-25T20:23:12.061Z,103289.31
2018-12-25T20:27:51.293Z,103289.75
2018-12-25T20:32:31.326Z,103291.06
2018-12-25T20:36:52.260Z,103291.97
2018-12-25T20:41:28.493Z,103287.95
2018-12-25T20:45:43.474Z,103291.97
2018-12-25T20:49:53.695Z,103285.75
2018-12-25T20:54:15.657Z,103272.84
2018-12-25T20:58:45.145Z,103271.52
2018-12-25T21:02:48.989Z,103287.53
2018-12-25T21:07:04.084Z,103275.06
2018-12-25T21:11:33.212Z,103277.70
2018-12-25T21:16:08.433Z,103278.62
2018-12-25T21:20:31.122Z,103272.81
2018-12-25T21:24:49.790Z,103264.83
2018-12-25T21:28:13.016Z,103261.17
2018-12-25T21:31:38.601Z,103262.55
2018-12-25T21:35:24.483Z,103254.06
2018-12-25T21:38:49.988Z,103252.75
2018-12-25T21:42:15.841Z,103250.53
2018-12-25T21:45:41.438Z,103250.55
2018-12-25T21:49:07.541Z,103249.63
2018-12-25T21:52:33.708Z,103256.28
2018-12-25T21:55:59.347Z,103259.87
2018-12-25T21:59:25.359Z,103251.81
2018-12-25T22:02:52.024Z,103245.17
2018-12-25T22:06:17.578Z,103237.61
2018-12-25T22:09:43.162Z,103229.18
2018-12-25T22:13:08.821Z,103227.39
2018-12-25T22:16:34.387Z,103226.91
2018-12-25T22:20:00.612Z,103218.95
2018-12-25T22:23:26.170Z,103218.93
2018-12-25T22:26:51.720Z,103216.69
2018-12-25T22:30:17.301Z,103219.36
2018-12-25T22:33:42.927Z,103215.36
2018-12-25T22:37:08.552Z,103218.05
2018-12-25T22:40:34.149Z,103213.58
2018-12-25T22:43:59.695Z,103216.69
2018-12-25T22:47:25.563Z,103214.84
2018-12-25T22:50:51.923Z,103208.69
2018-12-25T22:54:17.681Z,103213.99
2018-12-25T22:57:46.376Z,103212.69
2018-12-25T23:01:11.855Z,103204.66
2018-12-25T23:04:37.786Z,103202.45
2018-12-25T23:08:03.359Z,103201.45
2018-12-25T23:11:28.902Z,103202.82
2018-12-25T23:14:54.717Z,103213.10
2018-12-25T23:18:20.283Z,103210.44
2018-12-25T23:21:45.837Z,103201.11
2018-12-25T23:25:11.390Z,103210.84
2018-12-25T23:28:37.289Z,103216.66
2018-12-25T23:32:03.102Z,103217.92
2018-12-25T23:35:28.718Z,103217.10
2018-12-25T23:38:54.281Z,103224.05
2018-12-25T23:42:19.858Z,103229.83
2018-12-25T23:45:45.688Z,103224.50
2018-12-25T23:49:11.266Z,103214.23
2018-12-25T23:52:37.098Z,103212.42
2018-12-25T23:56:02.678Z,103207.22
2018-12-25T23:59:28.497Z,103210.77
